Terminal Aerodrome Forecast
Issued by NWS

Home | Current Version | Previous Version | Text Only | Print | Product List | Glossary On
Versions: 1 2 3 4 5 6 7 8 9 10 11 12 13 14 15 16 17
000
FTUS43 KGRB 272300
TAFCWA
TAF
KCWA 272324Z 2800/2824 VRB03KT P6SM SCT250
     FM280700 VRB03KT 6SM BR SCT250
      TEMPO 2808/2812 3SM BR
     FM281400 15007KT P6SM SCT060 OVC200
     FM282100 14008KT P6SM OVC050
      AMD LTD TO CLD VIS AND WIND 2803/2811=

USA.gov is the U.S. government's official web portal to all federal, state and local government web resources and services.